sensor_id;sensor_type;location;lat;lon;timestamp;pressure;altitude;pressure_sealevel;temperature;humidity
58698;BME280;44475;53.206;-6.106;2023-02-16T00:00:46;101199.22;;;23.60;45.45
58698;BME280;44475;53.206;-6.106;2023-02-16T00:03:18;101189.53;;;23.56;45.49
58698;BME280;44475;53.206;-6.106;2023-02-16T00:05:45;101189.25;;;23.59;45.46
58698;BME280;44475;53.206;-6.106;2023-02-16T00:08:12;101186.63;;;23.69;44.92
58698;BME280;44475;53.206;-6.106;2023-02-16T00:10:39;101179.94;;;23.62;44.93
58698;BME280;44475;53.206;-6.106;2023-02-16T00:13:26;101172.84;;;23.59;45.31
58698;BME280;44475;53.206;-6.106;2023-02-16T00:16:20;101181.59;;;23.53;45.32
58698;BME280;44475;53.206;-6.106;2023-02-16T00:18:48;101178.84;;;23.53;45.13
58698;BME280;44475;53.206;-6.106;2023-02-16T00:21:15;101170.25;;;23.57;45.08
58698;BME280;44475;53.206;-6.106;2023-02-16T00:23:41;101173.66;;;23.38;45.61
58698;BME280;44475;53.206;-6.106;2023-02-16T00:26:14;101167.97;;;23.41;45.38
58698;BME280;44475;53.206;-6.106;2023-02-16T00:28:42;101162.44;;;23.53;45.17
58698;BME280;44475;53.206;-6.106;2023-02-16T00:31:16;101159.31;;;23.57;45.17
58698;BME280;44475;53.206;-6.106;2023-02-16T00:33:43;101162.19;;;23.56;45.14
58698;BME280;44475;53.206;-6.106;2023-02-16T00:36:09;101157.84;;;23.53;45.29
58698;BME280;44475;53.206;-6.106;2023-02-16T00:38:36;101164.19;;;23.54;45.28
58698;BME280;44475;53.206;-6.106;2023-02-16T00:41:02;101149.75;;;23.63;45.14
58698;BME280;44475;53.206;-6.106;2023-02-16T00:43:29;101155.72;;;23.57;45.11
58698;BME280;44475;53.206;-6.106;2023-02-16T00:45:57;101141.44;;;23.53;45.17
58698;BME280;44475;53.206;-6.106;2023-02-16T00:48:24;101144.50;;;23.60;45.29
58698;BME280;44475;53.206;-6.106;2023-02-16T00:50:52;101146.78;;;23.55;45.29
58698;BME280;44475;53.206;-6.106;2023-02-16T00:53:18;101146.28;;;23.49;45.39
58698;BME280;44475;53.206;-6.106;2023-02-16T00:55:45;101154.69;;;23.58;45.04
58698;BME280;44475;53.206;-6.106;2023-02-16T00:58:21;101143.03;;;23.67;44.99
58698;BME280;44475;53.206;-6.106;2023-02-16T01:00:52;101137.94;;;23.63;45.19
58698;BME280;44475;53.206;-6.106;2023-02-16T01:03:23;101127.09;;;23.61;44.95
58698;BME280;44475;53.206;-6.106;2023-02-16T01:05:50;101127.44;;;23.68;44.93
58698;BME280;44475;53.206;-6.106;2023-02-16T01:08:37;101123.75;;;23.57;45.35
58698;BME280;44475;53.206;-6.106;2023-02-16T01:11:22;101124.78;;;23.56;45.19
58698;BME280;44475;53.206;-6.106;2023-02-16T01:13:51;101113.69;;;23.58;45.31
58698;BME280;44475;53.206;-6.106;2023-02-16T01:16:21;101114.53;;;23.58;45.16
58698;BME280;44475;53.206;-6.106;2023-02-16T01:18:48;101101.16;;;23.55;44.92
58698;BME280;44475;53.206;-6.106;2023-02-16T01:21:15;101097.88;;;23.62;45.23
58698;BME280;44475;53.206;-6.106;2023-02-16T01:23:41;101102.16;;;23.54;45.19
58698;BME280;44475;53.206;-6.106;2023-02-16T01:26:14;101105.28;;;23.49;45.40
58698;BME280;44475;53.206;-6.106;2023-02-16T01:28:41;101106.53;;;23.45;45.25
58698;BME280;44475;53.206;-6.106;2023-02-16T01:31:10;101108.75;;;23.52;45.32
58698;BME280;44475;53.206;-6.106;2023-02-16T01:33:39;101118.44;;;23.56;45.09
58698;BME280;44475;53.206;-6.106;2023-02-16T01:38:42;101110.16;;;23.46;45.28
58698;BME280;44475;53.206;-6.106;2023-02-16T01:41:25;101110.72;;;23.49;45.27
58698;BME280;44475;53.206;-6.106;2023-02-16T01:44:04;101105.47;;;23.58;45.27
58698;BME280;44475;53.206;-6.106;2023-02-16T01:49:17;101105.75;;;23.55;45.35
58698;BME280;44475;53.206;-6.106;2023-02-16T02:02:26;101116.94;;;23.52;45.62
58698;BME280;44475;53.206;-6.106;2023-02-16T02:04:59;101115.75;;;23.44;45.67
58698;BME280;44475;53.206;-6.106;2023-02-16T02:07:57;101113.75;;;23.46;45.52
58698;BME280;44475;53.206;-6.106;2023-02-16T02:13:42;101111.41;;;23.42;45.95
58698;BME280;44475;53.206;-6.106;2023-02-16T02:16:11;101102.16;;;23.54;45.66
58698;BME280;44475;53.206;-6.106;2023-02-16T02:18:41;101101.34;;;23.42;45.75
58698;BME280;44475;53.206;-6.106;2023-02-16T02:27:30;101098.81;;;23.51;46.05
58698;BME280;44475;53.206;-6.106;2023-02-16T02:44:57;101084.06;;;23.42;46.03
58698;BME280;44475;53.206;-6.106;2023-02-16T02:50:41;101069.91;;;23.58;45.52
58698;BME280;44475;53.206;-6.106;2023-02-16T02:53:29;101071.28;;;23.64;45.57
58698;BME280;44475;53.206;-6.106;2023-02-16T02:55:58;101069.44;;;23.64;45.68
58698;BME280;44475;53.206;-6.106;2023-02-16T02:58:47;101075.59;;;23.45;45.98
58698;BME280;44475;53.206;-6.106;2023-02-16T03:01:35;101084.06;;;23.42;46.07
58698;BME280;44475;53.206;-6.106;2023-02-16T03:04:04;101087.00;;;23.50;45.92
58698;BME280;44475;53.206;-6.106;2023-02-16T03:06:35;101071.78;;;23.57;45.78
58698;BME280;44475;53.206;-6.106;2023-02-16T03:09:10;101079.47;;;23.42;46.21
58698;BME280;44475;53.206;-6.106;2023-02-16T03:11:39;101093.94;;;23.54;45.94
58698;BME280;44475;53.206;-6.106;2023-02-16T03:14:35;101099.06;;;23.47;45.84
58698;BME280;44475;53.206;-6.106;2023-02-16T03:17:25;101108.72;;;23.63;45.54
58698;BME280;44475;53.206;-6.106;2023-02-16T03:20:13;101115.69;;;23.56;45.47
58698;BME280;44475;53.206;-6.106;2023-02-16T03:22:59;101111.84;;;23.47;46.14
58698;BME280;44475;53.206;-6.106;2023-02-16T03:25:45;101103.44;;;23.38;46.03
58698;BME280;44475;53.206;-6.106;2023-02-16T03:28:31;101115.69;;;23.56;45.85
58698;BME280;44475;53.206;-6.106;2023-02-16T03:31:21;101112.59;;;23.49;45.95
58698;BME280;44475;53.206;-6.106;2023-02-16T03:33:49;101109.13;;;23.47;45.76
58698;BME280;44475;53.206;-6.106;2023-02-16T03:36:25;101115.22;;;23.51;45.87
58698;BME280;44475;53.206;-6.106;2023-02-16T03:38:53;101122.16;;;23.55;45.52
58698;BME280;44475;53.206;-6.106;2023-02-16T03:41:20;101133.56;;;23.60;45.64
58698;BME280;44475;53.206;-6.106;2023-02-16T03:43:46;101124.34;;;23.61;45.51
58698;BME280;44475;53.206;-6.106;2023-02-16T03:46:12;101126.03;;;23.52;45.91
58698;BME280;44475;53.206;-6.106;2023-02-16T03:48:39;101114.47;;;23.48;45.81
58698;BME280;44475;53.206;-6.106;2023-02-16T03:51:05;101108.66;;;23.42;45.84
58698;BME280;44475;53.206;-6.106;2023-02-16T03:53:31;101105.28;;;23.49;46.06
58698;BME280;44475;53.206;-6.106;2023-02-16T03:55:57;101113.53;;;23.59;45.63
58698;BME280;44475;53.206;-6.106;2023-02-16T03:58:24;101096.56;;;23.56;45.52
58698;BME280;44475;53.206;-6.106;2023-02-16T04:00:51;101089.31;;;23.66;45.61
58698;BME280;44475;53.206;-6.106;2023-02-16T04:03:18;101098.28;;;23.57;45.59
58698;BME280;44475;53.206;-6.106;2023-02-16T04:05:45;101095.06;;;23.52;45.81
58698;BME280;44475;53.206;-6.106;2023-02-16T04:08:11;101096.81;;;23.53;45.82
58698;BME280;44475;53.206;-6.106;2023-02-16T04:10:38;101097.34;;;23.46;46.02
58698;BME280;44475;53.206;-6.106;2023-02-16T04:13:05;101091.47;;;23.51;45.57
58698;BME280;44475;53.206;-6.106;2023-02-16T04:15:32;101099.28;;;23.56;45.52
58698;BME280;44475;53.206;-6.106;2023-02-16T04:17:58;101092.59;;;23.48;45.64
58698;BME280;44475;53.206;-6.106;2023-02-16T04:20:28;101097.41;;;23.56;45.44
58698;BME280;44475;53.206;-6.106;2023-02-16T04:22:54;101099.41;;;23.54;45.66
58698;BME280;44475;53.206;-6.106;2023-02-16T04:25:21;101099.75;;;23.61;45.59
58698;BME280;44475;53.206;-6.106;2023-02-16T04:27:48;101092.47;;;23.50;45.58
58698;BME280;44475;53.206;-6.106;2023-02-16T04:30:17;101090.22;;;23.55;45.78
58698;BME280;44475;53.206;-6.106;2023-02-16T04:32:44;101099.41;;;23.54;45.62
58698;BME280;44475;53.206;-6.106;2023-02-16T04:35:11;101096.06;;;23.51;45.63
58698;BME280;44475;53.206;-6.106;2023-02-16T04:37:37;101104.16;;;23.52;45.87
58698;BME280;44475;53.206;-6.106;2023-02-16T04:40:05;101100.00;;;23.58;45.65
58698;BME280;44475;53.206;-6.106;2023-02-16T04:42:32;101088.72;;;23.51;45.67
58698;BME280;44475;53.206;-6.106;2023-02-16T04:44:58;101098.06;;;23.48;45.96
58698;BME280;44475;53.206;-6.106;2023-02-16T04:47:24;101104.53;;;23.47;45.68
58698;BME280;44475;53.206;-6.106;2023-02-16T04:49:52;101095.06;;;23.52;45.58
58698;BME280;44475;53.206;-6.106;2023-02-16T04:52:19;101096.69;;;23.54;45.56
58698;BME280;44475;53.206;-6.106;2023-02-16T04:54:45;101112.34;;;23.52;45.74
58698;BME280;44475;53.206;-6.106;2023-02-16T04:57:12;101116.63;;;23.45;45.92
58698;BME280;44475;53.206;-6.106;2023-02-16T04:59:38;101105.63;;;23.56;45.68
58698;BME280;44475;53.206;-6.106;2023-02-16T05:02:04;101115.69;;;23.56;45.29
58698;BME280;44475;53.206;-6.106;2023-02-16T05:04:31;101113.75;;;23.46;45.97
58698;BME280;44475;53.206;-6.106;2023-02-16T05:06:57;101112.72;;;23.47;45.65
58698;BME280;44475;53.206;-6.106;2023-02-16T05:09:23;101121.41;;;23.53;45.62
58698;BME280;44475;53.206;-6.106;2023-02-16T05:11:49;101125.94;;;23.42;46.01
58698;BME280;44475;53.206;-6.106;2023-02-16T05:14:35;101120.59;;;23.41;46.26
58698;BME280;44475;53.206;-6.106;2023-02-16T05:17:08;101118.72;;;23.41;45.99
58698;BME280;44475;53.206;-6.106;2023-02-16T05:19:35;101115.34;;;23.49;45.94
58698;BME280;44475;53.206;-6.106;2023-02-16T05:22:02;101134.34;;;23.51;45.80
58698;BME280;44475;53.206;-6.106;2023-02-16T05:24:28;101141.22;;;23.45;46.05
58698;BME280;44475;53.206;-6.106;2023-02-16T05:26:54;101147.41;;;23.47;45.82
58698;BME280;44475;53.206;-6.106;2023-02-16T05:29:20;101142.81;;;23.47;46.09
58698;BME280;44475;53.206;-6.106;2023-02-16T05:31:47;101129.13;;;23.47;45.90
58698;BME280;44475;53.206;-6.106;2023-02-16T05:34:13;101118.06;;;23.49;45.95
58698;BME280;44475;53.206;-6.106;2023-02-16T05:36:39;101126.69;;;23.44;45.89
58698;BME280;44475;53.206;-6.106;2023-02-16T05:39:06;101122.22;;;23.43;45.83
58698;BME280;44475;53.206;-6.106;2023-02-16T05:41:32;101127.28;;;23.48;46.03
58698;BME280;44475;53.206;-6.106;2023-02-16T05:44:00;101133.47;;;23.50;45.65
58698;BME280;44475;53.206;-6.106;2023-02-16T05:46:28;101152.03;;;23.46;45.80
58698;BME280;44475;53.206;-6.106;2023-02-16T05:48:57;101154.50;;;23.49;45.65
58698;BME280;44475;53.206;-6.106;2023-02-16T05:51:23;101152.63;;;23.50;45.95
58698;BME280;44475;53.206;-6.106;2023-02-16T05:53:50;101151.41;;;23.43;45.96
58698;BME280;44475;53.206;-6.106;2023-02-16T05:56:17;101157.63;;;23.45;45.86
58698;BME280;44475;53.206;-6.106;2023-02-16T05:58:44;101161.69;;;23.51;45.83
58698;BME280;44475;53.206;-6.106;2023-02-16T06:01:11;101160.25;;;23.46;46.03
58698;BME280;44475;53.206;-6.106;2023-02-16T06:03:37;101159.88;;;23.39;45.95
58698;BME280;44475;53.206;-6.106;2023-02-16T06:06:04;101174.03;;;23.45;46.02
58698;BME280;44475;53.206;-6.106;2023-02-16T06:08:32;101169.91;;;23.51;45.63
58698;BME280;44475;53.206;-6.106;2023-02-16T06:10:58;101180.50;;;23.44;45.81
58698;BME280;44475;53.206;-6.106;2023-02-16T06:13:25;101180.97;;;23.49;45.93
58698;BME280;44475;53.206;-6.106;2023-02-16T06:15:54;101196.00;;;23.55;45.74
58698;BME280;44475;53.206;-6.106;2023-02-16T06:18:21;101210.19;;;23.48;45.95
58698;BME280;44475;53.206;-6.106;2023-02-16T06:20:48;101203.13;;;23.46;45.77
58698;BME280;44475;53.206;-6.106;2023-02-16T06:23:14;101209.50;;;23.35;46.07
58698;BME280;44475;53.206;-6.106;2023-02-16T06:25:42;101214.06;;;23.46;45.91
58698;BME280;44475;53.206;-6.106;2023-02-16T06:28:08;101205.00;;;23.45;45.65
58698;BME280;44475;53.206;-6.106;2023-02-16T06:30:34;101202.84;;;23.49;45.74
58698;BME280;44475;53.206;-6.106;2023-02-16T06:33:04;101203.50;;;23.41;46.00
58698;BME280;44475;53.206;-6.106;2023-02-16T06:35:30;101205.25;;;23.42;46.07
58698;BME280;44475;53.206;-6.106;2023-02-16T06:37:56;101207.47;;;23.37;45.91
58698;BME280;44475;53.206;-6.106;2023-02-16T06:40:24;101210.84;;;23.41;45.82
58698;BME280;44475;53.206;-6.106;2023-02-16T06:42:50;101211.84;;;23.39;45.98
58698;BME280;44475;53.206;-6.106;2023-02-16T06:45:17;101213.56;;;23.41;45.96
58698;BME280;44475;53.206;-6.106;2023-02-16T06:47:44;101213.69;;;23.39;45.83
58698;BME280;44475;53.206;-6.106;2023-02-16T06:50:10;101211.47;;;23.44;45.89
58698;BME280;44475;53.206;-6.106;2023-02-16T06:52:39;101209.06;;;23.51;45.38
58698;BME280;44475;53.206;-6.106;2023-02-16T06:55:06;101230.59;;;23.44;45.64
58698;BME280;44475;53.206;-6.106;2023-02-16T06:57:32;101228.63;;;23.46;45.63
58698;BME280;44475;53.206;-6.106;2023-02-16T06:59:58;101245.91;;;23.35;45.79
58698;BME280;44475;53.206;-6.106;2023-02-16T07:02:24;101248.75;;;23.45;45.89
58698;BME280;44475;53.206;-6.106;2023-02-16T07:04:52;101243.66;;;23.41;45.70
58698;BME280;44475;53.206;-6.106;2023-02-16T07:07:19;101240.16;;;23.38;45.99
58698;BME280;44475;53.206;-6.106;2023-02-16T07:09:45;101249.75;;;23.44;45.90
58698;BME280;44475;53.206;-6.106;2023-02-16T07:12:11;101237.66;;;23.47;45.67
58698;BME280;44475;53.206;-6.106;2023-02-16T07:14:38;101247.34;;;23.51;45.74
58698;BME280;44475;53.206;-6.106;2023-02-16T07:17:04;101248.31;;;23.62;45.37
58698;BME280;44475;53.206;-6.106;2023-02-16T07:19:31;101254.34;;;23.44;45.48
58698;BME280;44475;53.206;-6.106;2023-02-16T07:22:01;101261.91;;;23.40;45.95
58698;BME280;44475;53.206;-6.106;2023-02-16T07:24:28;101257.31;;;23.41;45.71
58698;BME280;44475;53.206;-6.106;2023-02-16T07:26:54;101255.59;;;23.39;46.12
58698;BME280;44475;53.206;-6.106;2023-02-16T07:29:21;101260.44;;;23.36;45.83
58698;BME280;44475;53.206;-6.106;2023-02-16T07:31:47;101262.66;;;23.42;45.84
58698;BME280;44475;53.206;-6.106;2023-02-16T07:34:13;101259.94;;;23.42;45.90
58698;BME280;44475;53.206;-6.106;2023-02-16T07:36:39;101257.66;;;23.47;45.60
58698;BME280;44475;53.206;-6.106;2023-02-16T07:39:06;101259.03;;;23.53;45.26
58698;BME280;44475;53.206;-6.106;2023-02-16T07:41:32;101257.19;;;23.54;45.15
58698;BME280;44475;53.206;-6.106;2023-02-16T07:44:06;101264.16;;;23.46;45.69
58698;BME280;44475;53.206;-6.106;2023-02-16T07:46:33;101269.13;;;23.41;45.86
58698;BME280;44475;53.206;-6.106;2023-02-16T07:48:59;101262.78;;;23.41;45.69
58698;BME280;44475;53.206;-6.106;2023-02-16T07:51:28;101266.41;;;23.41;45.70
58698;BME280;44475;53.206;-6.106;2023-02-16T07:53:56;101269.66;;;23.35;46.00
58698;BME280;44475;53.206;-6.106;2023-02-16T07:56:28;101261.69;;;23.32;45.58
58698;BME280;44475;53.206;-6.106;2023-02-16T07:58:56;101262.06;;;23.27;45.86
58698;BME280;44475;53.206;-6.106;2023-02-16T08:01:24;101270.53;;;23.35;45.67
58698;BME280;44475;53.206;-6.106;2023-02-16T08:03:50;101276.97;;;23.34;45.82
58698;BME280;44475;53.206;-6.106;2023-02-16T08:06:17;101271.13;;;23.39;45.58
58698;BME280;44475;53.206;-6.106;2023-02-16T08:08:44;101280.59;;;23.35;45.96
58698;BME280;44475;53.206;-6.106;2023-02-16T08:11:22;101286.41;;;23.42;45.42
58698;BME280;44475;53.206;-6.106;2023-02-16T08:13:49;101297.59;;;23.38;45.58
58698;BME280;44475;53.206;-6.106;2023-02-16T08:16:21;101312.13;;;23.39;45.43
58698;BME280;44475;53.206;-6.106;2023-02-16T08:18:48;101324.19;;;23.48;45.45
58698;BME280;44475;53.206;-6.106;2023-02-16T08:21:28;101335.63;;;23.30;45.78
58698;BME280;44475;53.206;-6.106;2023-02-16T08:24:03;101335.50;;;23.32;45.62
58698;BME280;44475;53.206;-6.106;2023-02-16T08:26:39;101331.16;;;23.41;45.49
58698;BME280;44475;53.206;-6.106;2023-02-16T08:29:07;101333.53;;;23.34;45.61
58698;BME280;44475;53.206;-6.106;2023-02-16T08:31:38;101361.34;;;23.39;45.52
58698;BME280;44475;53.206;-6.106;2023-02-16T08:34:04;101361.22;;;23.41;45.56
58698;BME280;44475;53.206;-6.106;2023-02-16T08:36:35;101363.34;;;23.48;45.43
58698;BME280;44475;53.206;-6.106;2023-02-16T08:39:15;101372.06;;;23.42;45.59
58698;BME280;44475;53.206;-6.106;2023-02-16T08:41:43;101380.25;;;23.31;45.65
58698;BME280;44475;53.206;-6.106;2023-02-16T08:44:10;101386.06;;;23.26;46.04
58698;BME280;44475;53.206;-6.106;2023-02-16T08:46:38;101389.81;;;23.36;45.62
58698;BME280;44475;53.206;-6.106;2023-02-16T08:49:06;101397.28;;;23.34;45.46
58698;BME280;44475;53.206;-6.106;2023-02-16T08:51:34;101399.50;;;23.41;45.57
58698;BME280;44475;53.206;-6.106;2023-02-16T08:54:03;101406.59;;;23.32;45.45
58698;BME280;44475;53.206;-6.106;2023-02-16T08:56:30;101400.63;;;23.26;45.80
58698;BME280;44475;53.206;-6.106;2023-02-16T08:58:58;101390.19;;;23.32;45.94
58698;BME280;44475;53.206;-6.106;2023-02-16T09:01:25;101382.47;;;23.37;45.59
58698;BME280;44475;53.206;-6.106;2023-02-16T09:03:52;101399.16;;;23.34;45.64
58698;BME280;44475;53.206;-6.106;2023-02-16T09:06:20;101387.59;;;23.30;46.03
58698;BME280;44475;53.206;-6.106;2023-02-16T09:08:55;101381.75;;;23.35;46.00
58698;BME280;44475;53.206;-6.106;2023-02-16T09:11:22;101387.34;;;23.33;45.72
58698;BME280;44475;53.206;-6.106;2023-02-16T09:13:50;101392.53;;;23.36;45.70
58698;BME280;44475;53.206;-6.106;2023-02-16T09:16:18;101403.34;;;23.26;45.76
58698;BME280;44475;53.206;-6.106;2023-02-16T09:18:46;101409.97;;;23.35;45.64
58698;BME280;44475;53.206;-6.106;2023-02-16T09:21:15;101399.03;;;23.35;45.88
58698;BME280;44475;53.206;-6.106;2023-02-16T09:23:43;101400.16;;;23.33;45.64
58698;BME280;44475;53.206;-6.106;2023-02-16T09:26:16;101405.09;;;23.27;45.96
58698;BME280;44475;53.206;-6.106;2023-02-16T09:28:43;101406.59;;;23.32;46.08
58698;BME280;44475;53.206;-6.106;2023-02-16T09:31:16;101411.97;;;23.45;45.60
58698;BME280;44475;53.206;-6.106;2023-02-16T09:33:45;101409.97;;;23.35;45.96
58698;BME280;44475;53.206;-6.106;2023-02-16T09:36:12;101427.50;;;23.33;45.93
58698;BME280;44475;53.206;-6.106;2023-02-16T09:38:39;101425.00;;;23.29;45.97
58698;BME280;44475;53.206;-6.106;2023-02-16T09:44:08;101425.34;;;23.36;45.83
58698;BME280;44475;53.206;-6.106;2023-02-16T09:46:38;101425.97;;;23.28;45.98
58698;BME280;44475;53.206;-6.106;2023-02-16T09:49:06;101424.22;;;23.27;45.95
58698;BME280;44475;53.206;-6.106;2023-02-16T09:51:40;101421.03;;;23.34;45.72
58698;BME280;44475;53.206;-6.106;2023-02-16T10:00:23;101442.63;;;23.37;45.69
58698;BME280;44475;53.206;-6.106;2023-02-16T10:02:56;101439.03;;;23.36;46.01
58698;BME280;44475;53.206;-6.106;2023-02-16T10:05:36;101455.19;;;23.39;46.00
58698;BME280;44475;53.206;-6.106;2023-02-16T10:08:12;101482.25;;;23.19;46.36
58698;BME280;44475;53.206;-6.106;2023-02-16T10:10:47;101478.78;;;23.29;46.32
58698;BME280;44475;53.206;-6.106;2023-02-16T10:15:48;101489.25;;;23.24;46.32
58698;BME280;44475;53.206;-6.106;2023-02-16T10:18:31;101485.31;;;23.51;45.77
58698;BME280;44475;53.206;-6.106;2023-02-16T10:21:02;101508.16;;;23.38;45.75
58698;BME280;44475;53.206;-6.106;2023-02-16T10:23:52;101513.03;;;23.46;45.51
58698;BME280;44475;53.206;-6.106;2023-02-16T10:26:29;101528.91;;;23.41;45.86
58698;BME280;44475;53.206;-6.106;2023-02-16T10:29:12;101534.72;;;23.36;46.07
58698;BME280;44475;53.206;-6.106;2023-02-16T10:41:03;101516.47;;;23.37;45.97
58698;BME280;44475;53.206;-6.106;2023-02-16T10:46:25;101506.16;;;23.41;46.13
58698;BME280;44475;53.206;-6.106;2023-02-16T10:48:55;101494.97;;;23.32;46.30
58698;BME280;44475;53.206;-6.106;2023-02-16T10:51:30;101496.97;;;23.42;45.73
58698;BME280;44475;53.206;-6.106;2023-02-16T10:59:06;101504.53;;;23.38;46.27
58698;BME280;44475;53.206;-6.106;2023-02-16T11:01:39;101515.34;;;23.28;46.14
58698;BME280;44475;53.206;-6.106;2023-02-16T11:04:07;101513.53;;;23.52;45.89
58698;BME280;44475;53.206;-6.106;2023-02-16T11:06:35;101515.13;;;23.43;45.63
58698;BME280;44475;53.206;-6.106;2023-02-16T11:09:02;101516.75;;;23.45;45.79
58698;BME280;44475;53.206;-6.106;2023-02-16T11:11:37;101507.88;;;23.30;46.33
58698;BME280;44475;53.206;-6.106;2023-02-16T11:14:06;101487.88;;;23.29;45.97
58698;BME280;44475;53.206;-6.106;2023-02-16T11:16:34;101485.91;;;23.43;46.12
58698;BME280;44475;53.206;-6.106;2023-02-16T11:19:19;101496.09;;;23.41;46.05
58698;BME280;44475;53.206;-6.106;2023-02-16T11:21:50;101490.50;;;23.43;45.83
58698;BME280;44475;53.206;-6.106;2023-02-16T11:24:28;101496.72;;;23.33;45.78
58698;BME280;44475;53.206;-6.106;2023-02-16T11:27:25;101497.09;;;23.40;45.67
58698;BME280;44475;53.206;-6.106;2023-02-16T11:29:54;101480.06;;;23.48;45.53
58698;BME280;44475;53.206;-6.106;2023-02-16T11:32:38;101498.19;;;23.37;45.96
58698;BME280;44475;53.206;-6.106;2023-02-16T11:35:09;101499.44;;;23.33;45.81
58698;BME280;44475;53.206;-6.106;2023-02-16T11:37:35;101498.84;;;23.53;45.36
58698;BME280;44475;53.206;-6.106;2023-02-16T11:40:12;101492.25;;;23.44;45.66
58698;BME280;44475;53.206;-6.106;2023-02-16T11:42:48;101497.59;;;23.34;45.74
58698;BME280;44475;53.206;-6.106;2023-02-16T11:47:53;101501.22;;;23.46;45.50
58698;BME280;44475;53.206;-6.106;2023-02-16T11:55:31;101528.28;;;23.37;45.96
58698;BME280;44475;53.206;-6.106;2023-02-16T12:01:01;101538.88;;;23.06;46.99
58698;BME280;44475;53.206;-6.106;2023-02-16T12:03:49;101531.13;;;22.75;48.17
58698;BME280;44475;53.206;-6.106;2023-02-16T12:06:29;101532.78;;;23.02;47.16
58698;BME280;44475;53.206;-6.106;2023-02-16T12:09:12;101526.66;;;23.23;46.72
58698;BME280;44475;53.206;-6.106;2023-02-16T12:11:58;101531.38;;;23.33;46.34
58698;BME280;44475;53.206;-6.106;2023-02-16T12:25:16;101520.47;;;23.44;45.78
58698;BME280;44475;53.206;-6.106;2023-02-16T12:33:37;101508.06;;;23.52;45.69
58698;BME280;44475;53.206;-6.106;2023-02-16T12:44:39;101517.13;;;23.52;45.82
58698;BME280;44475;53.206;-6.106;2023-02-16T12:47:07;101516.31;;;23.63;45.42
58698;BME280;44475;53.206;-6.106;2023-02-16T12:52:41;101504.22;;;23.54;45.62
58698;BME280;44475;53.206;-6.106;2023-02-16T12:57:57;101513.63;;;23.50;45.81
58698;BME280;44475;53.206;-6.106;2023-02-16T13:00:43;101507.31;;;23.49;45.72
58698;BME280;44475;53.206;-6.106;2023-02-16T13:13:39;101499.81;;;23.40;45.94
58698;BME280;44475;53.206;-6.106;2023-02-16T13:18:36;101506.06;;;23.42;45.62
58698;BME280;44475;53.206;-6.106;2023-02-16T13:21:12;101501.94;;;23.48;45.40
58698;BME280;44475;53.206;-6.106;2023-02-16T13:32:12;101478.09;;;23.50;45.50
58698;BME280;44475;53.206;-6.106;2023-02-16T13:38:00;101496.00;;;23.43;45.71
58698;BME280;44475;53.206;-6.106;2023-02-16T13:43:38;101483.56;;;23.50;45.90
58698;BME280;44475;53.206;-6.106;2023-02-16T13:46:12;101484.91;;;23.33;46.57
58698;BME280;44475;53.206;-6.106;2023-02-16T13:48:46;101485.03;;;23.43;46.32
58698;BME280;44475;53.206;-6.106;2023-02-16T13:51:16;101480.69;;;23.52;46.50
58698;BME280;44475;53.206;-6.106;2023-02-16T13:53:51;101474.75;;;23.46;46.72
58698;BME280;44475;53.206;-6.106;2023-02-16T13:58:50;101476.00;;;23.54;46.66
58698;BME280;44475;53.206;-6.106;2023-02-16T14:01:36;101464.41;;;23.50;46.47
58698;BME280;44475;53.206;-6.106;2023-02-16T14:04:09;101466.38;;;23.48;46.48
58698;BME280;44475;53.206;-6.106;2023-02-16T14:06:39;101465.91;;;23.54;46.26
58698;BME280;44475;53.206;-6.106;2023-02-16T14:14:29;101448.38;;;23.45;46.40
58698;BME280;44475;53.206;-6.106;2023-02-16T14:27:59;101437.44;;;23.45;46.43
58698;BME280;44475;53.206;-6.106;2023-02-16T14:30:48;101428.09;;;23.48;46.31
58698;BME280;44475;53.206;-6.106;2023-02-16T14:38:32;101423.78;;;23.57;46.54
58698;BME280;44475;53.206;-6.106;2023-02-16T14:41:02;101420.56;;;23.63;46.25
58698;BME280;44475;53.206;-6.106;2023-02-16T14:43:49;101417.69;;;23.53;46.30
58698;BME280;44475;53.206;-6.106;2023-02-16T14:46:29;101419.03;;;23.24;47.78
58698;BME280;44475;53.206;-6.106;2023-02-16T14:58:01;101401.03;;;23.56;46.67
58698;BME280;44475;53.206;-6.106;2023-02-16T15:00:45;101383.88;;;23.66;46.41
58698;BME280;44475;53.206;-6.106;2023-02-16T15:03:19;101371.31;;;23.63;46.58
58698;BME280;44475;53.206;-6.106;2023-02-16T15:06:04;101382.34;;;23.62;46.69
58698;BME280;44475;53.206;-6.106;2023-02-16T15:08:35;101377.13;;;23.58;46.67
58698;BME280;44475;53.206;-6.106;2023-02-16T15:11:29;101386.97;;;23.49;46.90
58698;BME280;44475;53.206;-6.106;2023-02-16T15:14:04;101383.75;;;23.67;46.49
58698;BME280;44475;53.206;-6.106;2023-02-16T15:16:32;101368.06;;;23.69;46.07
58698;BME280;44475;53.206;-6.106;2023-02-16T15:19:06;101373.41;;;23.36;46.98
58698;BME280;44475;53.206;-6.106;2023-02-16T15:21:33;101377.03;;;23.25;47.79
58698;BME280;44475;53.206;-6.106;2023-02-16T15:24:00;101375.53;;;23.33;47.84
58698;BME280;44475;53.206;-6.106;2023-02-16T15:26:29;101364.34;;;23.36;47.46
58698;BME280;44475;53.206;-6.106;2023-02-16T15:29:15;101369.06;;;23.34;47.38
58698;BME280;44475;53.206;-6.106;2023-02-16T15:31:45;101361.47;;;23.26;48.06
58698;BME280;44475;53.206;-6.106;2023-02-16T15:34:24;101351.56;;;23.25;48.24
58698;BME280;44475;53.206;-6.106;2023-02-16T15:36:51;101350.53;;;23.37;47.59
58698;BME280;44475;53.206;-6.106;2023-02-16T15:39:44;101354.75;;;23.53;47.29
58698;BME280;44475;53.206;-6.106;2023-02-16T15:42:21;101353.28;;;23.26;47.93
58698;BME280;44475;53.206;-6.106;2023-02-16T15:44:48;101347.56;;;23.29;48.15
58698;BME280;44475;53.206;-6.106;2023-02-16T15:47:23;101367.31;;;23.21;47.97
58698;BME280;44475;53.206;-6.106;2023-02-16T15:49:50;101365.59;;;23.32;47.99
58698;BME280;44475;53.206;-6.106;2023-02-16T15:52:26;101361.75;;;23.34;47.81
58698;BME280;44475;53.206;-6.106;2023-02-16T15:54:54;101352.03;;;23.53;47.78